sensor_id;sensor_type;location;lat;lon;timestamp;pressure;altitude;pressure_sealevel;temperature;humidity
27334;BME280;14817;57.104;-2.094;2024-03-25T00:01:38;99582.25;;;3.46;100.00
27334;BME280;14817;57.104;-2.094;2024-03-25T00:04:04;99575.84;;;3.48;100.00
27334;BME280;14817;57.104;-2.094;2024-03-25T00:06:29;99572.09;;;3.51;100.00
27334;BME280;14817;57.104;-2.094;2024-03-25T00:09:00;99573.91;;;3.51;100.00
27334;BME280;14817;57.104;-2.094;2024-03-25T00:11:26;99571.19;;;3.62;100.00
27334;BME280;14817;57.104;-2.094;2024-03-25T00:13:51;99567.72;;;3.71;100.00
27334;BME280;14817;57.104;-2.094;2024-03-25T00:16:17;99562.44;;;3.71;100.00
27334;BME280;14817;57.104;-2.094;2024-03-25T00:18:43;99566.50;;;3.75;100.00
27334;BME280;14817;57.104;-2.094;2024-03-25T00:21:09;99562.31;;;3.73;100.00
27334;BME280;14817;57.104;-2.094;2024-03-25T00:23:34;99566.34;;;3.67;100.00
27334;BME280;14817;57.104;-2.094;2024-03-25T00:26:00;99561.47;;;3.72;100.00
27334;BME280;14817;57.104;-2.094;2024-03-25T00:28:26;99566.00;;;3.60;100.00
27334;BME280;14817;57.104;-2.094;2024-03-25T00:30:52;99561.16;;;3.65;100.00
27334;BME280;14817;57.104;-2.094;2024-03-25T00:33:18;99555.81;;;3.56;100.00
27334;BME280;14817;57.104;-2.094;2024-03-25T00:35:43;99555.91;;;3.75;100.00
27334;BME280;14817;57.104;-2.094;2024-03-25T00:38:12;99555.44;;;3.91;100.00
27334;BME280;14817;57.104;-2.094;2024-03-25T00:40:38;99554.50;;;3.71;100.00
27334;BME280;14817;57.104;-2.094;2024-03-25T00:43:03;99549.97;;;3.83;100.00
27334;BME280;14817;57.104;-2.094;2024-03-25T00:45:29;99545.31;;;3.75;100.00
27334;BME280;14817;57.104;-2.094;2024-03-25T00:47:58;99542.53;;;3.67;100.00
27334;BME280;14817;57.104;-2.094;2024-03-25T00:50:25;99538.06;;;3.77;100.00
27334;BME280;14817;57.104;-2.094;2024-03-25T00:52:51;99539.31;;;3.73;100.00
27334;BME280;14817;57.104;-2.094;2024-03-25T00:55:17;99538.06;;;3.77;100.00
27334;BME280;14817;57.104;-2.094;2024-03-25T00:57:43;99527.47;;;3.67;100.00
27334;BME280;14817;57.104;-2.094;2024-03-25T01:00:10;99524.31;;;3.83;100.00
27334;BME280;14817;57.104;-2.094;2024-03-25T01:02:36;99520.13;;;3.81;100.00
27334;BME280;14817;57.104;-2.094;2024-03-25T01:05:04;99519.00;;;3.83;100.00
27334;BME280;14817;57.104;-2.094;2024-03-25T01:07:31;99518.84;;;3.75;100.00
27334;BME280;14817;57.104;-2.094;2024-03-25T01:09:56;99514.53;;;3.74;100.00
27334;BME280;14817;57.104;-2.094;2024-03-25T01:12:24;99514.13;;;3.79;100.00
27334;BME280;14817;57.104;-2.094;2024-03-25T01:14:51;99513.59;;;3.95;100.00
27334;BME280;14817;57.104;-2.094;2024-03-25T01:17:17;99512.84;;;3.73;100.00
27334;BME280;14817;57.104;-2.094;2024-03-25T01:19:43;99509.19;;;3.64;100.00
27334;BME280;14817;57.104;-2.094;2024-03-25T01:22:09;99513.53;;;3.75;100.00
27334;BME280;14817;57.104;-2.094;2024-03-25T01:24:35;99511.34;;;3.80;100.00
27334;BME280;14817;57.104;-2.094;2024-03-25T01:27:01;99514.06;;;3.69;100.00
27334;BME280;14817;57.104;-2.094;2024-03-25T01:29:27;99507.81;;;3.70;100.00
27334;BME280;14817;57.104;-2.094;2024-03-25T01:31:52;99500.28;;;3.75;100.00
27334;BME280;14817;57.104;-2.094;2024-03-25T01:34:19;99495.72;;;3.77;100.00
27334;BME280;14817;57.104;-2.094;2024-03-25T01:36:45;99495.31;;;3.82;100.00
27334;BME280;14817;57.104;-2.094;2024-03-25T01:39:11;99492.97;;;3.88;100.00
27334;BME280;14817;57.104;-2.094;2024-03-25T01:41:36;99492.97;;;3.88;100.00
27334;BME280;14817;57.104;-2.094;2024-03-25T01:44:02;99495.28;;;3.72;100.00
27334;BME280;14817;57.104;-2.094;2024-03-25T01:46:29;99493.91;;;3.78;100.00
27334;BME280;14817;57.104;-2.094;2024-03-25T01:48:55;99495.22;;;3.62;100.00
27334;BME280;14817;57.104;-2.094;2024-03-25T01:51:24;99491.53;;;3.75;100.00
27334;BME280;14817;57.104;-2.094;2024-03-25T01:53:52;99496.00;;;3.74;100.00
27334;BME280;14817;57.104;-2.094;2024-03-25T01:56:18;99486.75;;;3.68;100.00
27334;BME280;14817;57.104;-2.094;2024-03-25T01:58:46;99491.22;;;3.68;100.00
27334;BME280;14817;57.104;-2.094;2024-03-25T02:01:12;99487.88;;;3.66;100.00
27334;BME280;14817;57.104;-2.094;2024-03-25T02:03:44;99493.03;;;3.67;100.00
27334;BME280;14817;57.104;-2.094;2024-03-25T02:06:13;99487.22;;;3.74;100.00
27334;BME280;14817;57.104;-2.094;2024-03-25T02:08:41;99477.56;;;3.73;100.00
27334;BME280;14817;57.104;-2.094;2024-03-25T02:11:08;99480.22;;;3.73;100.00
27334;BME280;14817;57.104;-2.094;2024-03-25T02:13:35;99480.00;;;3.85;100.00
27334;BME280;14817;57.104;-2.094;2024-03-25T02:16:02;99479.28;;;3.83;100.00
27334;BME280;14817;57.104;-2.094;2024-03-25T02:18:28;99477.69;;;3.71;100.00
27334;BME280;14817;57.104;-2.094;2024-03-25T02:20:54;99473.97;;;3.83;100.00
27334;BME280;14817;57.104;-2.094;2024-03-25T02:23:19;99462.72;;;3.91;100.00
27334;BME280;14817;57.104;-2.094;2024-03-25T02:25:52;99469.22;;;3.77;100.00
27334;BME280;14817;57.104;-2.094;2024-03-25T02:28:19;99466.78;;;3.55;100.00
27334;BME280;14817;57.104;-2.094;2024-03-25T02:30:45;99471.03;;;3.67;100.00
27334;BME280;14817;57.104;-2.094;2024-03-25T02:33:11;99464.03;;;3.66;100.00
27334;BME280;14817;57.104;-2.094;2024-03-25T02:35:38;99464.63;;;3.79;100.00
27334;BME280;14817;57.104;-2.094;2024-03-25T02:38:06;99470.50;;;3.42;100.00
27334;BME280;14817;57.104;-2.094;2024-03-25T02:40:32;99460.19;;;3.39;100.00
27334;BME280;14817;57.104;-2.094;2024-03-25T02:42:59;99463.56;;;3.51;100.00
27334;BME280;14817;57.104;-2.094;2024-03-25T02:45:25;99451.00;;;3.43;100.00
27334;BME280;14817;57.104;-2.094;2024-03-25T02:47:51;99447.78;;;3.40;100.00
27334;BME280;14817;57.104;-2.094;2024-03-25T02:50:17;99446.28;;;3.47;100.00
27334;BME280;14817;57.104;-2.094;2024-03-25T02:52:42;99448.91;;;3.37;100.00
27334;BME280;14817;57.104;-2.094;2024-03-25T02:55:08;99446.25;;;3.37;100.00
27334;BME280;14817;57.104;-2.094;2024-03-25T02:57:34;99445.44;;;3.46;100.00
27334;BME280;14817;57.104;-2.094;2024-03-25T03:00:00;99441.81;;;3.47;100.00
27334;BME280;14817;57.104;-2.094;2024-03-25T03:02:26;99441.09;;;3.36;100.00
27334;BME280;14817;57.104;-2.094;2024-03-25T03:04:52;99431.91;;;3.40;100.00
27334;BME280;14817;57.104;-2.094;2024-03-25T03:07:18;99426.75;;;3.38;100.00
27334;BME280;14817;57.104;-2.094;2024-03-25T03:09:43;99423.44;;;3.46;100.00
27334;BME280;14817;57.104;-2.094;2024-03-25T03:12:09;99419.22;;;3.43;100.00
27334;BME280;14817;57.104;-2.094;2024-03-25T03:14:35;99413.16;;;3.53;100.00
27334;BME280;14817;57.104;-2.094;2024-03-25T03:17:01;99419.09;;;3.35;100.00
27334;BME280;14817;57.104;-2.094;2024-03-25T03:19:30;99410.28;;;3.25;100.00
27334;BME280;14817;57.104;-2.094;2024-03-25T03:21:56;99408.50;;;3.35;100.00
27334;BME280;14817;57.104;-2.094;2024-03-25T03:24:22;99417.50;;;3.23;100.00
27334;BME280;14817;57.104;-2.094;2024-03-25T03:26:49;99408.28;;;3.58;100.00
27334;BME280;14817;57.104;-2.094;2024-03-25T03:29:15;99406.16;;;3.52;100.00
27334;BME280;14817;57.104;-2.094;2024-03-25T03:31:40;99411.22;;;3.55;100.00
27334;BME280;14817;57.104;-2.094;2024-03-25T03:34:06;99410.94;;;3.58;100.00
27334;BME280;14817;57.104;-2.094;2024-03-25T03:36:32;99419.31;;;3.63;100.00
27334;BME280;14817;57.104;-2.094;2024-03-25T03:38:58;99407.19;;;3.70;100.00
27334;BME280;14817;57.104;-2.094;2024-03-25T03:41:23;99406.09;;;3.73;100.00
27334;BME280;14817;57.104;-2.094;2024-03-25T03:43:49;99403.56;;;3.61;100.00
27334;BME280;14817;57.104;-2.094;2024-03-25T03:46:15;99394.09;;;3.68;100.00
27334;BME280;14817;57.104;-2.094;2024-03-25T03:48:41;99395.50;;;3.63;100.00
27334;BME280;14817;57.104;-2.094;2024-03-25T03:51:08;99392.56;;;3.66;100.00
27334;BME280;14817;57.104;-2.094;2024-03-25T03:53:34;99380.56;;;3.62;100.00
27334;BME280;14817;57.104;-2.094;2024-03-25T03:56:03;99388.97;;;3.67;100.00
27334;BME280;14817;57.104;-2.094;2024-03-25T03:58:31;99377.38;;;3.68;100.00
27334;BME280;14817;57.104;-2.094;2024-03-25T04:00:57;99380.97;;;3.57;100.00
27334;BME280;14817;57.104;-2.094;2024-03-25T04:03:23;99378.47;;;3.56;100.00
27334;BME280;14817;57.104;-2.094;2024-03-25T04:05:49;99373.78;;;3.28;100.00
27334;BME280;14817;57.104;-2.094;2024-03-25T04:08:16;99368.06;;;3.23;100.00
27334;BME280;14817;57.104;-2.094;2024-03-25T04:10:44;99376.81;;;3.14;100.00
27334;BME280;14817;57.104;-2.094;2024-03-25T04:13:11;99368.72;;;3.16;100.00
27334;BME280;14817;57.104;-2.094;2024-03-25T04:15:39;99370.34;;;3.07;100.00
27334;BME280;14817;57.104;-2.094;2024-03-25T04:18:06;99371.59;;;3.03;100.00
27334;BME280;14817;57.104;-2.094;2024-03-25T04:20:40;99365.25;;;3.15;100.00
27334;BME280;14817;57.104;-2.094;2024-03-25T04:23:06;99372.63;;;3.12;100.00
27334;BME280;14817;57.104;-2.094;2024-03-25T04:25:36;99363.00;;;3.11;100.00
27334;BME280;14817;57.104;-2.094;2024-03-25T04:28:03;99359.53;;;3.20;100.00
27334;BME280;14817;57.104;-2.094;2024-03-25T04:30:29;99361.63;;;3.16;100.00
27334;BME280;14817;57.104;-2.094;2024-03-25T04:32:55;99359.13;;;3.15;100.00
27334;BME280;14817;57.104;-2.094;2024-03-25T04:35:21;99360.97;;;3.24;100.00
27334;BME280;14817;57.104;-2.094;2024-03-25T04:37:47;99355.94;;;3.21;100.00
27334;BME280;14817;57.104;-2.094;2024-03-25T04:40:13;99356.66;;;3.23;100.00
27334;BME280;14817;57.104;-2.094;2024-03-25T04:42:44;99359.88;;;3.26;100.00
27334;BME280;14817;57.104;-2.094;2024-03-25T04:45:10;99355.78;;;3.13;100.00
27334;BME280;14817;57.104;-2.094;2024-03-25T04:47:37;99350.38;;;3.24;100.00
27334;BME280;14817;57.104;-2.094;2024-03-25T04:50:04;99349.53;;;3.14;100.00
27334;BME280;14817;57.104;-2.094;2024-03-25T04:52:30;99363.72;;;3.13;100.00
27334;BME280;14817;57.104;-2.094;2024-03-25T04:54:56;99357.47;;;3.14;100.00
27334;BME280;14817;57.104;-2.094;2024-03-25T04:57:23;99350.66;;;3.21;100.00
27334;BME280;14817;57.104;-2.094;2024-03-25T04:59:48;99347.25;;;3.09;100.00
27334;BME280;14817;57.104;-2.094;2024-03-25T05:02:14;99351.47;;;3.21;100.00
27334;BME280;14817;57.104;-2.094;2024-03-25T05:04:40;99352.91;;;3.25;100.00
27334;BME280;14817;57.104;-2.094;2024-03-25T05:07:06;99339.00;;;3.33;100.00
27334;BME280;14817;57.104;-2.094;2024-03-25T05:09:32;99348.59;;;3.34;100.00
27334;BME280;14817;57.104;-2.094;2024-03-25T05:11:58;99341.66;;;3.33;100.00
27334;BME280;14817;57.104;-2.094;2024-03-25T05:14:23;99343.06;;;3.37;100.00
27334;BME280;14817;57.104;-2.094;2024-03-25T05:16:49;99340.41;;;3.47;100.00
27334;BME280;14817;57.104;-2.094;2024-03-25T05:19:17;99339.00;;;3.33;100.00
27334;BME280;14817;57.104;-2.094;2024-03-25T05:21:44;99344.41;;;3.32;100.00
27334;BME280;14817;57.104;-2.094;2024-03-25T05:24:10;99340.97;;;3.51;100.00
27334;BME280;14817;57.104;-2.094;2024-03-25T05:26:35;99349.03;;;3.39;100.00
27334;BME280;14817;57.104;-2.094;2024-03-25T05:29:01;99346.13;;;3.42;100.00
27334;BME280;14817;57.104;-2.094;2024-03-25T05:31:28;99345.13;;;3.43;100.00
27334;BME280;14817;57.104;-2.094;2024-03-25T05:33:53;99344.72;;;3.38;100.00
27334;BME280;14817;57.104;-2.094;2024-03-25T05:36:19;99344.72;;;3.38;100.00
27334;BME280;14817;57.104;-2.094;2024-03-25T05:38:45;99344.00;;;3.36;100.00
27334;BME280;14817;57.104;-2.094;2024-03-25T05:41:11;99343.75;;;3.39;100.00
27334;BME280;14817;57.104;-2.094;2024-03-25T05:43:37;99340.00;;;3.42;100.00
27334;BME280;14817;57.104;-2.094;2024-03-25T05:46:03;99343.72;;;3.30;100.00
27334;BME280;14817;57.104;-2.094;2024-03-25T05:48:29;99347.34;;;3.38;100.00
27334;BME280;14817;57.104;-2.094;2024-03-25T05:51:02;99349.31;;;3.36;100.00
27334;BME280;14817;57.104;-2.094;2024-03-25T05:53:28;99345.25;;;3.32;100.00
27334;BME280;14817;57.104;-2.094;2024-03-25T05:55:54;99346.66;;;3.36;100.00
27334;BME280;14817;57.104;-2.094;2024-03-25T05:58:21;99343.75;;;3.49;100.00
27334;BME280;14817;57.104;-2.094;2024-03-25T06:00:48;99352.94;;;3.35;100.00
27334;BME280;14817;57.104;-2.094;2024-03-25T06:03:15;99340.66;;;3.34;100.00
27334;BME280;14817;57.104;-2.094;2024-03-25T06:05:41;99344.72;;;3.38;100.00
27334;BME280;14817;57.104;-2.094;2024-03-25T06:08:07;99330.38;;;3.41;100.00
27334;BME280;14817;57.104;-2.094;2024-03-25T06:10:43;99337.34;;;3.52;100.00
27334;BME280;14817;57.104;-2.094;2024-03-25T06:13:09;99322.63;;;3.59;100.00
27334;BME280;14817;57.104;-2.094;2024-03-25T06:15:35;99321.63;;;3.60;100.00
27334;BME280;14817;57.104;-2.094;2024-03-25T06:18:01;99322.28;;;3.42;100.00
27334;BME280;14817;57.104;-2.094;2024-03-25T06:20:27;99323.56;;;3.58;100.00
27334;BME280;14817;57.104;-2.094;2024-03-25T06:22:52;99323.72;;;3.66;100.00
27334;BME280;14817;57.104;-2.094;2024-03-25T06:25:18;99321.66;;;3.70;100.00
27334;BME280;14817;57.104;-2.094;2024-03-25T06:27:45;99320.13;;;3.67;100.00
27334;BME280;14817;57.104;-2.094;2024-03-25T06:30:11;99324.84;;;3.63;100.00
27334;BME280;14817;57.104;-2.094;2024-03-25T06:32:56;99323.19;;;3.72;100.00
27334;BME280;14817;57.104;-2.094;2024-03-25T06:35:42;99325.53;;;3.56;100.00
27334;BME280;14817;57.104;-2.094;2024-03-25T06:38:10;99331.53;;;3.77;100.00
27334;BME280;14817;57.104;-2.094;2024-03-25T06:40:36;99330.72;;;3.86;100.00
27334;BME280;14817;57.104;-2.094;2024-03-25T06:43:03;99323.19;;;3.72;100.00
27334;BME280;14817;57.104;-2.094;2024-03-25T06:45:29;99327.66;;;3.91;100.00
27334;BME280;14817;57.104;-2.094;2024-03-25T06:47:56;99326.53;;;3.94;100.00
27334;BME280;14817;57.104;-2.094;2024-03-25T06:50:24;99326.66;;;4.02;100.00
27334;BME280;14817;57.104;-2.094;2024-03-25T06:52:50;99324.72;;;4.04;100.00
27334;BME280;14817;57.104;-2.094;2024-03-25T06:55:16;99324.00;;;4.21;100.00
27334;BME280;14817;57.104;-2.094;2024-03-25T06:57:42;99325.97;;;4.29;100.00
27334;BME280;14817;57.104;-2.094;2024-03-25T07:00:08;99331.78;;;4.33;100.00
27334;BME280;14817;57.104;-2.094;2024-03-25T07:02:41;99329.56;;;4.38;100.00
27334;BME280;14817;57.104;-2.094;2024-03-25T07:05:07;99325.66;;;4.42;100.00
27334;BME280;14817;57.104;-2.094;2024-03-25T07:07:33;99324.53;;;4.35;100.00
27334;BME280;14817;57.104;-2.094;2024-03-25T07:10:00;99319.25;;;4.35;100.00
27334;BME280;14817;57.104;-2.094;2024-03-25T07:12:26;99318.56;;;4.23;100.00
27334;BME280;14817;57.104;-2.094;2024-03-25T07:14:52;99322.03;;;4.33;100.00
27334;BME280;14817;57.104;-2.094;2024-03-25T07:17:18;99324.69;;;4.23;100.00
27334;BME280;14817;57.104;-2.094;2024-03-25T07:19:44;99317.00;;;4.30;100.00
27334;BME280;14817;57.104;-2.094;2024-03-25T07:22:10;99318.97;;;4.38;100.00
27334;BME280;14817;57.104;-2.094;2024-03-25T07:24:36;99328.56;;;4.48;100.00
27334;BME280;14817;57.104;-2.094;2024-03-25T07:27:02;99334.63;;;4.78;100.00
27334;BME280;14817;57.104;-2.094;2024-03-25T07:29:28;99329.75;;;4.74;100.00
27334;BME280;14817;57.104;-2.094;2024-03-25T07:31:54;99340.69;;;4.51;100.00
27334;BME280;14817;57.104;-2.094;2024-03-25T07:34:20;99336.75;;;4.65;100.00
27334;BME280;14817;57.104;-2.094;2024-03-25T07:36:46;99332.44;;;4.54;100.00
27334;BME280;14817;57.104;-2.094;2024-03-25T07:39:14;99336.03;;;4.73;100.00
27334;BME280;14817;57.104;-2.094;2024-03-25T07:41:40;99335.66;;;4.67;100.00
27334;BME280;14817;57.104;-2.094;2024-03-25T07:44:06;99347.53;;;4.63;100.00
27334;BME280;14817;57.104;-2.094;2024-03-25T07:46:32;99343.56;;;4.77;100.00
27334;BME280;14817;57.104;-2.094;2024-03-25T07:48:58;99348.03;;;4.77;100.00
27334;BME280;14817;57.104;-2.094;2024-03-25T07:51:24;99346.34;;;4.76;100.00
27334;BME280;14817;57.104;-2.094;2024-03-25T07:53:49;99361.84;;;4.80;100.00
27334;BME280;14817;57.104;-2.094;2024-03-25T07:56:16;99368.25;;;4.87;100.00
27334;BME280;14817;57.104;-2.094;2024-03-25T07:58:42;99358.09;;;5.10;100.00
27334;BME280;14817;57.104;-2.094;2024-03-25T08:01:07;99360.34;;;5.05;100.00
27334;BME280;14817;57.104;-2.094;2024-03-25T08:03:33;99359.31;;;5.16;100.00
27334;BME280;14817;57.104;-2.094;2024-03-25T08:05:59;99367.56;;;5.23;100.00
27334;BME280;14817;57.104;-2.094;2024-03-25T08:08:25;99360.72;;;5.20;100.00
27334;BME280;14817;57.104;-2.094;2024-03-25T08:10:51;99373.25;;;5.28;100.00
27334;BME280;14817;57.104;-2.094;2024-03-25T08:13:21;99374.63;;;5.32;100.00
27334;BME280;14817;57.104;-2.094;2024-03-25T08:15:47;99367.38;;;5.34;100.00
27334;BME280;14817;57.104;-2.094;2024-03-25T08:18:13;99362.75;;;5.36;100.00
27334;BME280;14817;57.104;-2.094;2024-03-25T08:20:39;99372.66;;;5.34;100.00
27334;BME280;14817;57.104;-2.094;2024-03-25T08:23:05;99366.88;;;5.48;100.00
27334;BME280;14817;57.104;-2.094;2024-03-25T08:25:32;99364.94;;;5.41;100.00
27334;BME280;14817;57.104;-2.094;2024-03-25T08:27:58;99373.47;;;5.44;100.00
27334;BME280;14817;57.104;-2.094;2024-03-25T08:30:24;99371.56;;;5.55;100.00
27334;BME280;14817;57.104;-2.094;2024-03-25T08:32:51;99373.25;;;5.56;100.00
27334;BME280;14817;57.104;-2.094;2024-03-25T08:35:17;99366.94;;;5.57;100.00
27334;BME280;14817;57.104;-2.094;2024-03-25T08:37:43;99372.13;;;5.58;100.00
27334;BME280;14817;57.104;-2.094;2024-03-25T08:40:09;99369.59;;;5.57;100.00
27334;BME280;14817;57.104;-2.094;2024-03-25T08:42:35;99362.13;;;5.70;100.00
27334;BME280;14817;57.104;-2.094;2024-03-25T08:45:01;99362.81;;;5.72;100.00
27334;BME280;14817;57.104;-2.094;2024-03-25T08:47:27;99362.50;;;5.75;100.00
27334;BME280;14817;57.104;-2.094;2024-03-25T08:49:53;99357.28;;;5.83;100.00
27334;BME280;14817;57.104;-2.094;2024-03-25T08:52:18;99362.28;;;5.86;100.00
27334;BME280;14817;57.104;-2.094;2024-03-25T08:54:44;99358.91;;;6.12;100.00
27334;BME280;14817;57.104;-2.094;2024-03-25T08:57:10;99356.47;;;6.19;100.00
27334;BME280;14817;57.104;-2.094;2024-03-25T08:59:36;99354.66;;;6.19;100.00
27334;BME280;14817;57.104;-2.094;2024-03-25T09:02:02;99354.13;;;6.16;100.00
27334;BME280;14817;57.104;-2.094;2024-03-25T09:04:27;99359.44;;;6.16;100.00
27334;BME280;14817;57.104;-2.094;2024-03-25T09:06:53;99352.13;;;6.36;100.00
27334;BME280;14817;57.104;-2.094;2024-03-25T09:09:19;99358.00;;;6.21;100.00
27334;BME280;14817;57.104;-2.094;2024-03-25T09:12:03;99350.53;;;6.25;100.00
27334;BME280;14817;57.104;-2.094;2024-03-25T09:14:29;99347.88;;;6.25;100.00
27334;BME280;14817;57.104;-2.094;2024-03-25T09:16:55;99346.66;;;6.37;100.00
27334;BME280;14817;57.104;-2.094;2024-03-25T09:19:21;99347.13;;;6.32;100.00
27334;BME280;14817;57.104;-2.094;2024-03-25T09:21:46;99347.28;;;6.57;100.00
27334;BME280;14817;57.104;-2.094;2024-03-25T09:24:12;99350.53;;;6.69;100.00
27334;BME280;14817;57.104;-2.094;2024-03-25T09:26:38;99350.22;;;6.72;100.00
27334;BME280;14817;57.104;-2.094;2024-03-25T09:29:04;99350.66;;;6.85;100.00
27334;BME280;14817;57.104;-2.094;2024-03-25T09:31:29;99342.72;;;6.67;100.00
27334;BME280;14817;57.104;-2.094;2024-03-25T09:33:55;99348.13;;;6.84;100.00
27334;BME280;14817;57.104;-2.094;2024-03-25T09:36:21;99349.16;;;6.91;100.00
27334;BME280;14817;57.104;-2.094;2024-03-25T09:38:47;99342.63;;;7.11;100.00
27334;BME280;14817;57.104;-2.094;2024-03-25T09:41:13;99337.66;;;7.16;100.00
27334;BME280;14817;57.104;-2.094;2024-03-25T09:43:44;99334.25;;;6.98;100.00
27334;BME280;14817;57.104;-2.094;2024-03-25T09:46:13;99335.13;;;7.07;100.00
27334;BME280;14817;57.104;-2.094;2024-03-25T09:48:41;99343.84;;;6.91;100.00
27334;BME280;14817;57.104;-2.094;2024-03-25T09:51:07;99338.75;;;6.71;100.00
27334;BME280;14817;57.104;-2.094;2024-03-25T09:53:35;99350.00;;;6.65;100.00
27334;BME280;14817;57.104;-2.094;2024-03-25T09:56:01;99350.63;;;6.59;100.00
27334;BME280;14817;57.104;-2.094;2024-03-25T09:58:27;99348.16;;;6.58;100.00
27334;BME280;14817;57.104;-2.094;2024-03-25T10:00:54;99348.97;;;6.58;100.00
27334;BME280;14817;57.104;-2.094;2024-03-25T10:03:21;99346.03;;;6.69;100.00
27334;BME280;14817;57.104;-2.094;2024-03-25T10:05:47;99337.56;;;6.66;100.00
27334;BME280;14817;57.104;-2.094;2024-03-25T10:08:13;99338.25;;;6.68;100.00
27334;BME280;14817;57.104;-2.094;2024-03-25T10:10:39;99337.31;;;6.59;100.00
27334;BME280;14817;57.104;-2.094;2024-03-25T10:13:04;99342.97;;;6.56;100.00
27334;BME280;14817;57.104;-2.094;2024-03-25T10:15:32;99332.38;;;6.64;100.00
27334;BME280;14817;57.104;-2.094;2024-03-25T10:17:58;99336.34;;;6.60;100.00
27334;BME280;14817;57.104;-2.094;2024-03-25T10:20:24;99343.31;;;6.61;100.00
27334;BME280;14817;57.104;-2.094;2024-03-25T10:22:51;99335.41;;;6.69;100.00
27334;BME280;14817;57.104;-2.094;2024-03-25T10:27:56;99331.16;;;6.77;100.00
27334;BME280;14817;57.104;-2.094;2024-03-25T10:30:22;99337.25;;;6.69;100.00
27334;BME280;14817;57.104;-2.094;2024-03-25T10:33:01;99341.81;;;6.85;100.00
27334;BME280;14817;57.104;-2.094;2024-03-25T10:35:29;99339.81;;;6.79;100.00
27334;BME280;14817;57.104;-2.094;2024-03-25T10:37:59;99338.72;;;6.98;100.00
27334;BME280;14817;57.104;-2.094;2024-03-25T10:40:30;99333.47;;;6.80;100.00
27334;BME280;14817;57.104;-2.094;2024-03-25T10:43:03;99336.63;;;6.75;100.00
27334;BME280;14817;57.104;-2.094;2024-03-25T10:45:30;99334.56;;;6.69;100.00
27334;BME280;14817;57.104;-2.094;2024-03-25T10:48:21;99326.84;;;6.84;100.00
27334;BME280;14817;57.104;-2.094;2024-03-25T10:50:53;99329.34;;;6.59;100.00
27334;BME280;14817;57.104;-2.094;2024-03-25T10:53:21;99314.59;;;6.65;100.00
27334;BME280;14817;57.104;-2.094;2024-03-25T10:55:54;99321.75;;;6.64;100.00
27334;BME280;14817;57.104;-2.094;2024-03-25T10:58:22;99314.66;;;6.47;100.00
27334;BME280;14817;57.104;-2.094;2024-03-25T11:00:48;99310.22;;;6.56;100.00
27334;BME280;14817;57.104;-2.094;2024-03-25T11:03:15;99303.41;;;6.53;100.00
27334;BME280;14817;57.104;-2.094;2024-03-25T11:05:41;99305.06;;;6.54;100.00
27334;BME280;14817;57.104;-2.094;2024-03-25T11:08:14;99310.16;;;6.47;100.00
27334;BME280;14817;57.104;-2.094;2024-03-25T11:10:44;99304.22;;;6.27;100.00
27334;BME280;14817;57.104;-2.094;2024-03-25T11:13:11;99306.81;;;6.19;100.00
27334;BME280;14817;57.104;-2.094;2024-03-25T11:15:40;99305.31;;;6.17;100.00
27334;BME280;14817;57.104;-2.094;2024-03-25T11:18:12;99300.50;;;6.20;100.00
27334;BME280;14817;57.104;-2.094;2024-03-25T11:20:41;99297.16;;;6.18;100.00
27334;BME280;14817;57.104;-2.094;2024-03-25T11:23:14;99308.59;;;6.37;100.00
27334;BME280;14817;57.104;-2.094;2024-03-25T11:25:41;99295.91;;;6.30;100.00
27334;BME280;14817;57.104;-2.094;2024-03-25T11:28:08;99303.56;;;6.33;100.00
27334;BME280;14817;57.104;-2.094;2024-03-25T11:30:36;99296.94;;;6.29;100.00
27334;BME280;14817;57.104;-2.094;2024-03-25T11:33:03;99298.03;;;6.45;100.00
27334;BME280;14817;57.104;-2.094;2024-03-25T11:35:37;99301.31;;;6.39;100.00
27334;BME280;14817;57.104;-2.094;2024-03-25T11:38:03;99283.44;;;6.49;100.00
27334;BME280;14817;57.104;-2.094;2024-03-25T11:40:29;99285.34;;;6.65;100.00
27334;BME280;14817;57.104;-2.094;2024-03-25T11:42:55;99278.94;;;6.49;100.00
27334;BME280;14817;57.104;-2.094;2024-03-25T11:45:21;99277.00;;;6.60;100.00
27334;BME280;14817;57.104;-2.094;2024-03-25T11:47:49;99274.50;;;6.58;100.00
27334;BME280;14817;57.104;-2.094;2024-03-25T11:50:16;99277.22;;;6.40;100.00
27334;BME280;14817;57.104;-2.094;2024-03-25T11:52:42;99275.66;;;6.56;100.00
27334;BME280;14817;57.104;-2.094;2024-03-25T11:55:09;99268.44;;;6.48;100.00
27334;BME280;14817;57.104;-2.094;2024-03-25T11:57:36;99266.47;;;6.50;100.00
27334;BME280;14817;57.104;-2.094;2024-03-25T12:00:03;99266.47;;;6.50;100.00
27334;BME280;14817;57.104;-2.094;2024-03-25T12:02:42;99258.19;;;6.53;100.00
27334;BME280;14817;57.104;-2.094;2024-03-25T12:05:08;99271.88;;;6.66;100.00
27334;BME280;14817;57.104;-2.094;2024-03-25T12:07:34;99259.88;;;6.62;100.00
27334;BME280;14817;57.104;-2.094;2024-03-25T12:10:02;99263.19;;;6.56;100.00
27334;BME280;14817;57.104;-2.094;2024-03-25T12:12:47;99262.78;;;6.43;100.00
27334;BME280;14817;57.104;-2.094;2024-03-25T12:15:13;99253.84;;;6.52;100.00
27334;BME280;14817;57.104;-2.094;2024-03-25T12:17:39;99248.91;;;6.65;100.00
27334;BME280;14817;57.104;-2.094;2024-03-25T12:20:07;99251.75;;;6.64;100.00
27334;BME280;14817;57.104;-2.094;2024-03-25T12:22:35;99253.06;;;6.60;100.00
27334;BME280;14817;57.104;-2.094;2024-03-25T12:25:04;99263.44;;;6.45;100.00
27334;BME280;14817;57.104;-2.094;2024-03-25T12:27:35;99259.78;;;6.46;100.00
27334;BME280;14817;57.104;-2.094;2024-03-25T12:30:06;99261.88;;;6.34;100.00
27334;BME280;14817;57.104;-2.094;2024-03-25T12:32:39;99252.06;;;6.34;100.00
27334;BME280;14817;57.104;-2.094;2024-03-25T12:35:17;99257.25;;;6.36;100.00
27334;BME280;14817;57.104;-2.094;2024-03-25T12:37:47;99251.47;;;6.41;100.00
27334;BME280;14817;57.104;-2.094;2024-03-25T12:40:25;99256.25;;;6.37;100.00
27334;BME280;14817;57.104;-2.094;2024-03-25T12:42:52;99260.78;;;6.45;100.00
27334;BME280;14817;57.104;-2.094;2024-03-25T12:45:20;99258.44;;;6.42;100.00
27334;BME280;14817;57.104;-2.094;2024-03-25T12:47:45;99251.13;;;6.44;100.00
27334;BME280;14817;57.104;-2.094;2024-03-25T12:50:11;99246.00;;;6.50;100.00
27334;BME280;14817;57.104;-2.094;2024-03-25T12:52:37;99228.28;;;6.33;100.00